Time;durP1;ratioP1;P1;durP2;ratioP2;P2;SDS_P1;SDS_P2;PMS_P1;PMS_P2;Temp;Humidity;BMP_temperature;BMP_pressure;BME280_temperature;BME280_humidity;BME280_pressure;Samples;Min_cycle;Max_cycle;Signal;HPM_P1;HPM_P2
2022/01/30 00:02:04;;;;;;;17.25;2.50;;;;;;;5.36;63.88;100502.34;7394416;19;20019;-64
2022/01/30 00:04:32;;;;;;;12.25;2.05;;;;;;;5.34;62.88;100488.47;7394260;19;20039;-64
2022/01/30 00:07:00;;;;;;;15.32;2.35;;;;;;;5.34;63.20;100514.47;7392021;19;20018;-64
2022/01/30 00:09:28;;;;;;;16.45;2.83;;;;;;;5.34;64.05;100513.63;7391982;19;20035;-64
2022/01/30 00:12:00;;;;;;;18.27;2.70;;;;;;;5.30;62.59;100576.94;7391982;19;20086;-65
2022/01/30 00:14:35;;;;;;;16.00;2.58;;;;;;;5.30;62.90;100507.56;7392233;19;20018;-65
2022/01/30 00:17:09;;;;;;;12.88;2.92;;;;;;;5.27;62.93;100499.78;7392073;19;20038;-64
2022/01/30 00:19:42;;;;;;;19.35;3.03;;;;;;;5.26;62.78;100524.06;7392728;19;20022;-64
2022/01/30 00:22:19;;;;;;;14.77;3.63;;;;;;;5.26;62.83;100491.97;7400438;19;20049;-64
2022/01/30 00:24:53;;;;;;;21.65;2.60;;;;;;;5.27;62.08;100559.63;7401204;19;20018;-64
2022/01/30 00:27:28;;;;;;;16.90;2.65;;;;;;;5.27;62.73;100484.19;7400121;19;20011;-64
2022/01/30 00:30:02;;;;;;;9.82;2.22;;;;;;;5.31;61.67;100446.88;7398569;19;20018;-64
2022/01/30 00:32:30;;;;;;;14.43;2.20;;;;;;;5.34;61.89;100477.22;7401164;19;20021;-64
2022/01/30 00:34:58;;;;;;;15.35;2.75;;;;;;;5.34;62.49;100478.06;7400318;19;20193;-64
2022/01/30 00:37:26;;;;;;;13.02;2.40;;;;;;;5.35;62.88;100471.13;7399402;19;20017;-64
2022/01/30 00:39:54;;;;;;;16.65;2.60;;;;;;;5.33;62.44;100497.16;7398038;19;20010;-64
2022/01/30 00:42:24;;;;;;;14.80;2.78;;;;;;;5.35;63.84;100491.94;7397867;19;20014;-64
2022/01/30 00:44:52;;;;;;;14.20;2.67;;;;;;;5.35;63.05;100482.41;7398043;19;20018;-71
2022/01/30 00:47:22;;;;;;;13.15;2.63;;;;;;;5.36;63.51;100499.75;7399176;19;20018;-66
2022/01/30 00:49:51;;;;;;;16.00;2.70;;;;;;;5.37;63.20;100517.09;7398109;19;20018;-66
2022/01/30 00:52:19;;;;;;;13.05;3.17;;;;;;;5.37;63.60;100482.38;7397628;19;20019;-66
2022/01/30 00:54:47;;;;;;;14.57;2.40;;;;;;;5.34;64.29;100483.25;7397109;19;20352;-66
2022/01/30 00:57:15;;;;;;;18.92;2.97;;;;;;;5.34;64.05;100480.66;7399073;19;20043;-66
2022/01/30 00:59:43;;;;;;;17.52;3.00;;;;;;;5.31;63.94;100514.50;7398465;19;20014;-66
2022/01/30 01:02:11;;;;;;;9.27;2.40;;;;;;;5.35;63.54;100499.75;7399708;19;20018;-66
2022/01/30 01:04:42;;;;;;;13.13;2.28;;;;;;;5.36;63.42;100497.13;7399447;19;20039;-65
2022/01/30 01:07:15;;;;;;;10.82;2.40;;;;;;;5.36;64.37;100457.25;7399182;19;20014;-65
2022/01/30 01:09:51;;;;;;;18.95;2.63;;;;;;;5.34;63.08;100505.81;7396858;19;20498;-66
2022/01/30 01:25:45;;;;;;;12.88;2.33;;;;;;;5.33;63.25;100507.56;7399521;19;20011;-65
2022/01/30 01:28:14;;;;;;;16.30;3.05;;;;;;;5.36;63.65;100481.53;7396577;19;20014;-65
2022/01/30 01:30:42;;;;;;;13.50;2.10;;;;;;;5.37;61.59;100504.06;7398757;19;20023;-65
2022/01/30 01:33:10;;;;;;;18.95;2.60;;;;;;;5.42;61.20;100495.38;7393887;19;20027;-65
2022/01/30 01:35:41;;;;;;;15.05;4.07;;;;;;;5.46;60.77;100421.63;7398155;19;20482;-65
2022/01/30 01:38:12;;;;;;;14.27;2.38;;;;;;;5.50;61.39;100439.81;7397172;19;20086;-65
2022/01/30 01:40:40;;;;;;;11.23;2.17;;;;;;;5.47;60.62;100431.16;7396077;19;20029;-65
2022/01/30 01:43:08;;;;;;;11.68;2.90;;;;;;;5.49;61.40;100414.66;7396408;19;20156;-65
2022/01/30 01:45:39;;;;;;;19.55;3.40;;;;;;;5.47;61.40;100431.16;7398191;19;20011;-65
2022/01/30 01:48:13;;;;;;;17.02;2.58;;;;;;;5.45;60.89;100419.94;7396964;19;20021;-65
2022/01/30 01:50:53;;;;;;;13.67;3.17;;;;;;;5.45;60.83;100453.75;7397768;19;20487;-65
2022/01/30 01:53:24;;;;;;;13.90;2.90;;;;;;;5.46;60.85;100455.44;7397984;19;20819;-65
2022/01/30 01:55:53;;;;;;;10.93;2.33;;;;;;;5.46;61.28;100403.41;7398255;19;20014;-66
2022/01/30 01:58:21;;;;;;;15.02;2.83;;;;;;;5.46;61.47;100445.03;7395774;19;20010;-65
2022/01/30 02:00:50;;;;;;;14.20;2.47;;;;;;;5.45;62.05;100438.13;7395681;19;20018;-65
2022/01/30 02:03:19;;;;;;;17.45;2.58;;;;;;;5.40;62.38;100419.94;7397664;19;20095;-65
2022/01/30 02:05:54;;;;;;;8.73;2.03;;;;;;;5.38;62.68;100458.09;7397158;19;20483;-66
2022/01/30 02:08:35;;;;;;;12.52;2.10;;;;;;;5.35;63.41;100461.59;7396102;19;20041;-65
2022/01/30 02:11:08;;;;;;;12.60;2.53;;;;;;;5.32;63.04;100447.72;7395962;19;20024;-65
2022/01/30 02:14:02;;;;;;;13.70;2.30;;;;;;;5.30;62.94;100455.53;7398779;19;20509;-65
2022/01/30 02:24:49;;;;;;;12.63;2.15;;;;;;;5.35;63.76;100422.56;7397110;19;20514;-65
2022/01/30 02:27:20;;;;;;;13.23;2.75;;;;;;;5.37;62.33;100415.63;7395376;19;20014;-64
2022/01/30 02:29:49;;;;;;;8.75;1.65;;;;;;;5.42;61.92;100511.00;7397177;19;20021;-67
2022/01/30 02:32:17;;;;;;;15.35;2.50;;;;;;;5.46;61.64;100434.63;7396718;19;20093;-66
2022/01/30 02:34:46;;;;;;;14.65;2.85;;;;;;;5.49;61.70;100432.03;7396633;19;20019;-65
2022/01/30 02:37:15;;;;;;;14.25;2.22;;;;;;;5.46;62.57;100440.72;7395898;19;20039;-66
2022/01/30 02:39:45;;;;;;;11.32;1.88;;;;;;;5.44;62.65;100447.66;7393880;19;20476;-66
2022/01/30 02:42:19;;;;;;;8.02;1.98;;;;;;;5.43;63.22;100512.72;7396780;19;20018;-65
2022/01/30 02:44:52;;;;;;;14.90;2.57;;;;;;;5.41;62.69;100472.81;7395976;19;20079;-65
2022/01/30 02:47:40;;;;;;;9.25;1.80;;;;;;;5.39;62.75;100481.50;7395861;19;20040;-65
2022/01/30 02:50:16;;;;;;;13.57;2.42;;;;;;;5.39;62.75;100528.31;7396629;19;20103;-65
2022/01/30 02:52:54;;;;;;;10.45;2.67;;;;;;;5.37;63.10;100445.97;7396479;19;20052;-65
2022/01/30 02:55:26;;;;;;;11.40;2.67;;;;;;;5.34;63.51;100459.00;7396400;19;20023;-65
2022/01/30 02:57:54;;;;;;;14.35;2.63;;;;;;;5.28;63.79;100475.50;7395072;19;20021;-65
2022/01/30 03:00:23;;;;;;;16.60;3.38;;;;;;;5.27;63.99;100460.78;7394041;19;20015;-65
2022/01/30 03:02:51;;;;;;;9.82;2.58;;;;;;;5.27;64.40;100428.66;7395615;19;20031;-65
2022/01/30 03:05:19;;;;;;;10.30;2.22;;;;;;;5.25;64.10;100456.44;7393909;19;20034;-65
2022/01/30 03:07:54;;;;;;;13.13;2.33;;;;;;;5.24;64.16;100428.69;7393444;19;20480;-65
2022/01/30 03:10:25;;;;;;;13.65;2.60;;;;;;;5.22;64.64;100439.97;7395982;19;20017;-64
2022/01/30 03:12:53;;;;;;;10.35;2.10;;;;;;;5.20;64.57;100405.28;7395452;19;20023;-65
2022/01/30 03:15:21;;;;;;;10.43;2.08;;;;;;;5.21;64.98;100393.16;7393652;19;20102;-66
2022/01/30 03:17:49;;;;;;;15.95;3.08;;;;;;;5.19;64.78;100478.13;7394285;19;20036;-65
2022/01/30 03:20:24;;;;;;;19.42;3.10;;;;;;;5.20;65.44;100415.69;7394294;19;20010;-65
2022/01/30 03:22:53;;;;;;;18.92;4.15;;;;;;;5.18;65.47;100466.88;7395258;19;20031;-65
2022/01/30 03:25:21;;;;;;;10.48;2.83;;;;;;;5.17;65.95;100451.28;7393163;19;20027;-65
2022/01/30 03:27:53;;;;;;;13.73;2.45;;;;;;;5.16;65.91;100488.56;7392576;19;20337;-65
2022/01/30 03:30:26;;;;;;;22.88;3.13;;;;;;;5.15;66.08;100459.06;7395005;19;20040;-65
2022/01/30 03:32:55;;;;;;;17.27;2.60;;;;;;;5.16;65.68;100452.16;7393340;19;20015;-65
2022/01/30 03:35:23;;;;;;;21.38;2.85;;;;;;;5.15;65.58;100516.28;7392979;19;20040;-64
2022/01/30 03:37:52;;;;;;;14.93;2.83;;;;;;;5.16;66.13;100473.81;7393555;19;20022;-65
2022/01/30 03:40:20;;;;;;;15.90;2.70;;;;;;;5.15;66.24;100471.22;7393108;19;20020;-64
2022/01/30 03:42:48;;;;;;;17.75;3.05;;;;;;;5.15;66.98;100461.66;7392739;19;20031;-65
2022/01/30 03:45:19;;;;;;;21.80;2.75;;;;;;;5.14;67.77;100511.09;7392701;19;20019;-65
2022/01/30 03:47:47;;;;;;;15.45;2.17;;;;;;;5.09;70.96;100544.03;7393488;19;20019;-65
2022/01/30 03:50:16;;;;;;;8.23;3.00;;;;;;;4.99;71.88;100476.47;7392555;19;20045;-65
2022/01/30 03:52:44;;;;;;;16.15;3.10;;;;;;;4.89;72.50;100490.34;7394305;19;20028;-65
2022/01/30 03:55:13;;;;;;;23.38;3.08;;;;;;;4.78;72.90;100461.78;7395082;19;20035;-65
2022/01/30 03:57:41;;;;;;;17.90;2.67;;;;;;;4.71;73.96;100440.16;7400263;19;20036;-65
2022/01/30 04:00:10;;;;;;;15.48;2.92;;;;;;;4.62;75.36;100486.94;7400654;19;20014;-65
2022/01/30 04:02:41;;;;;;;14.77;2.95;;;;;;;4.52;76.18;100485.22;7398352;19;20503;-65
2022/01/30 04:05:11;;;;;;;19.67;2.90;;;;;;;4.37;78.01;100532.84;7399210;19;20035;-64
2022/01/30 04:07:39;;;;;;;21.08;3.42;;;;;;;4.21;79.71;100534.59;7399851;19;20019;-64
2022/01/30 04:10:10;;;;;;;14.60;2.15;;;;;;;4.09;80.07;100439.34;7401302;19;20018;-65
2022/01/30 04:12:38;;;;;;;15.18;2.55;;;;;;;4.00;79.44;100535.41;7401604;19;20022;-64
2022/01/30 04:15:08;;;;;;;18.17;2.72;;;;;;;3.98;78.74;100459.25;7398466;19;20023;-65
2022/01/30 04:17:37;;;;;;;16.33;3.70;;;;;;;3.99;77.17;100495.59;7398332;19;20014;-65
2022/01/30 04:20:10;;;;;;;14.05;2.35;;;;;;;4.04;76.04;100434.19;7398288;19;20022;-65
2022/01/30 04:22:38;;;;;;;14.07;2.28;;;;;;;4.13;74.98;100441.06;7400548;19;20420;-65
2022/01/30 04:25:07;;;;;;;11.38;2.00;;;;;;;4.20;74.60;100475.72;7400801;19;20035;-65
2022/01/30 04:27:35;;;;;;;16.73;2.40;;;;;;;4.27;74.99;100454.06;7398372;19;20023;-65
2022/01/30 04:30:05;;;;;;;7.97;2.13;;;;;;;4.28;75.46;100497.34;7400810;19;20018;-65
2022/01/30 04:32:34;;;;;;;10.85;2.65;;;;;;;4.27;74.58;100486.97;7397926;19;20019;-65
2022/01/30 04:35:11;;;;;;;13.30;2.33;;;;;;;4.24;75.37;100480.03;7400512;19;20025;-65
2022/01/30 04:37:55;;;;;;;17.10;2.20;;;;;;;4.17;76.21;100458.41;7399450;19;20036;-65
2022/01/30 04:40:47;;;;;;;16.40;2.28;;;;;;;4.11;77.00;100462.72;7399153;19;20011;-65
2022/01/30 04:56:59;;;;;;;12.02;2.53;;;;;;;4.03;74.92;100473.09;7395645;19;20015;-65
2022/01/30 04:59:47;;;;;;;16.23;3.00;;;;;;;4.05;75.36;100450.63;7397395;19;20074;-65
2022/01/30 05:02:35;;;;;;;23.80;4.15;;;;;;;4.03;76.18;100484.38;7397405;19;20368;-65
2022/01/30 05:05:25;;;;;;;15.10;2.83;;;;;;;3.99;78.37;100500.78;7400100;19;20078;-65
2022/01/30 05:07:54;;;;;;;18.80;4.47;;;;;;;3.83;80.82;100492.13;7398464;19;20010;-65
2022/01/30 05:10:25;;;;;;;20.45;3.38;;;;;;;3.74;81.96;100495.56;7398110;19;20027;-65
2022/01/30 05:12:56;;;;;;;28.70;4.40;;;;;;;3.65;82.17;100487.78;7397349;19;20022;-65
2022/01/30 05:15:27;;;;;;;16.95;3.10;;;;;;;3.57;81.23;100489.47;7399596;19;20011;-65
2022/01/30 05:17:56;;;;;;;17.60;3.38;;;;;;;3.54;81.30;100476.50;7397627;19;20394;-65
2022/01/30 05:20:24;;;;;;;11.57;2.58;;;;;;;3.57;79.63;100494.66;7398199;19;20015;-65
2022/01/30 05:22:53;;;;;;;20.13;2.92;;;;;;;3.64;78.20;100508.50;7398522;19;20483;-65
2022/01/30 05:25:25;;;;;;;13.63;3.55;;;;;;;3.72;77.46;100523.22;7398809;19;20035;-65
2022/01/30 05:27:54;;;;;;;15.98;2.97;;;;;;;3.83;75.66;100553.53;7397649;19;20019;-66
2022/01/30 05:30:23;;;;;;;14.57;2.40;;;;;;;3.93;73.56;100563.09;7398431;19;20022;-65
2022/01/30 05:32:52;;;;;;;13.85;2.70;;;;;;;4.03;72.10;100499.06;7398527;19;20022;-66
2022/01/30 05:35:21;;;;;;;16.58;2.92;;;;;;;4.11;71.67;100510.34;7398445;19;20018;-65
2022/01/30 05:37:50;;;;;;;12.85;2.42;;;;;;;4.18;71.64;100558.81;7395933;19;20374;-66
2022/01/30 05:40:19;;;;;;;17.83;2.85;;;;;;;4.26;71.37;100529.38;7397278;19;20091;-65
2022/01/30 05:42:50;;;;;;;12.35;2.00;;;;;;;4.28;70.16;100519.88;7396306;19;20110;-65
2022/01/30 05:45:27;;;;;;;14.80;3.60;;;;;;;4.32;69.92;100544.97;7396652;19;20027;-65
2022/01/30 05:47:59;;;;;;;19.77;3.67;;;;;;;4.37;69.11;100538.03;7396374;19;20035;-66
2022/01/30 05:50:28;;;;;;;13.90;3.20;;;;;;;4.42;68.78;100569.22;7398385;19;20022;-65
2022/01/30 05:52:56;;;;;;;19.38;3.40;;;;;;;4.47;68.12;100525.94;7398041;19;20031;-66
2022/01/30 05:55:24;;;;;;;14.32;3.85;;;;;;;4.50;68.70;100539.78;7397834;19;20026;-65
2022/01/30 05:57:55;;;;;;;20.08;2.88;;;;;;;4.56;67.31;100523.31;7395859;19;20031;-65
2022/01/30 06:00:23;;;;;;;16.20;4.20;;;;;;;4.60;66.56;100551.06;7397306;19;20022;-65
2022/01/30 06:02:51;;;;;;;17.40;2.88;;;;;;;4.67;66.87;100570.94;7397621;19;20027;-65
2022/01/30 06:05:22;;;;;;;19.83;2.95;;;;;;;4.68;66.83;100554.50;7397603;19;20039;-65
2022/01/30 06:07:52;;;;;;;17.73;3.78;;;;;;;4.71;67.46;100575.31;7397824;19;20037;-64
2022/01/30 06:10:22;;;;;;;17.02;2.72;;;;;;;4.71;66.83;100635.09;7400590;19;20539;-65
2022/01/30 06:12:50;;;;;;;17.10;3.58;;;;;;;4.74;67.18;100590.03;7402220;19;20018;-65
2022/01/30 06:15:21;;;;;;;20.05;3.58;;;;;;;4.72;66.90;100597.81;7401303;19;20019;-66
2022/01/30 06:17:49;;;;;;;17.58;3.25;;;;;;;4.75;66.75;100557.09;7395223;19;20037;-66
2022/01/30 06:20:18;;;;;;;20.60;3.83;;;;;;;4.75;66.81;100575.28;7397222;19;20028;-65
2022/01/30 06:22:46;;;;;;;20.67;3.28;;;;;;;4.75;66.23;100615.13;7397013;19;20035;-65
2022/01/30 06:25:15;;;;;;;11.10;2.90;;;;;;;4.78;65.83;100616.88;7395151;19;20018;-64
2022/01/30 06:27:43;;;;;;;17.48;3.25;;;;;;;4.79;65.80;100570.09;7395044;19;20022;-64
2022/01/30 06:30:13;;;;;;;18.45;2.70;;;;;;;4.81;66.33;100590.88;7396752;19;20027;-65
2022/01/30 06:32:44;;;;;;;13.82;2.55;;;;;;;4.80;66.59;100584.84;7394423;19;20520;-64
2022/01/30 06:35:12;;;;;;;13.00;3.50;;;;;;;4.79;65.95;100603.00;7396944;19;20023;-64
2022/01/30 06:37:40;;;;;;;13.63;2.70;;;;;;;4.78;65.80;100609.06;7395457;19;20026;-64
2022/01/30 06:40:09;;;;;;;16.80;2.47;;;;;;;4.79;65.52;100603.00;7395565;19;20019;-65
2022/01/30 06:42:37;;;;;;;12.35;2.90;;;;;;;4.81;64.82;100650.69;7394829;19;20147;-64
2022/01/30 06:45:06;;;;;;;15.07;3.05;;;;;;;4.82;64.78;100603.03;7394599;19;20022;-64
2022/01/30 06:47:41;;;;;;;21.30;3.60;;;;;;;4.80;64.84;100620.34;7395099;19;20477;-64
2022/01/30 06:50:13;;;;;;;19.02;3.22;;;;;;;4.78;65.30;100596.06;7394638;19;20049;-64
2022/01/30 06:52:41;;;;;;;13.68;3.40;;;;;;;4.77;64.51;100564.03;7394883;19;20022;-64
2022/01/30 06:55:11;;;;;;;16.65;3.33;;;;;;;4.78;65.33;100614.25;7395986;19;20023;-64
2022/01/30 06:57:44;;;;;;;16.88;2.72;;;;;;;4.75;65.04;100648.06;7394096;19;20022;-64
2022/01/30 07:00:13;;;;;;;18.00;2.90;;;;;;;4.74;64.36;100608.22;7396351;19;20035;-64
2022/01/30 07:02:41;;;;;;;16.85;3.78;;;;;;;4.76;64.16;100661.06;7393844;19;20014;-64
2022/01/30 07:05:12;;;;;;;14.73;4.20;;;;;;;4.78;64.32;100635.94;7395136;19;20496;-65
2022/01/30 07:07:40;;;;;;;24.73;4.20;;;;;;;4.80;63.25;100667.13;7394445;19;20047;-63
2022/01/30 07:10:09;;;;;;;19.83;3.88;;;;;;;4.82;63.60;100632.47;7393752;19;20031;-64
2022/01/30 07:12:37;;;;;;;19.27;3.13;;;;;;;4.84;63.87;100676.66;7395570;19;20031;-64
2022/01/30 07:15:06;;;;;;;21.27;3.53;;;;;;;4.84;63.77;100656.75;7393246;19;20374;-64
2022/01/30 07:17:34;;;;;;;16.05;3.20;;;;;;;4.85;64.32;100673.19;7394403;19;20027;-64
2022/01/30 07:20:02;;;;;;;15.57;2.65;;;;;;;4.85;63.43;100668.00;7395400;19;20476;-64
2022/01/30 07:22:33;;;;;;;12.90;3.20;;;;;;;4.85;63.53;100629.88;7393619;19;20027;-64
2022/01/30 07:25:02;;;;;;;23.38;3.85;;;;;;;4.86;63.96;100660.19;7393613;19;20031;-64
2022/01/30 07:27:30;;;;;;;17.60;3.90;;;;;;;4.86;63.61;100660.19;7394326;19;20034;-64
2022/01/30 07:29:58;;;;;;;14.73;3.65;;;;;;;4.84;63.65;100698.34;7395072;19;20022;-64
2022/01/30 07:32:26;;;;;;;20.85;3.45;;;;;;;4.84;63.50;100668.84;7402252;19;20477;-65
2022/01/30 07:34:55;;;;;;;18.92;3.67;;;;;;;4.81;63.74;100635.94;7399518;19;20040;-65
2022/01/30 07:37:33;;;;;;;16.55;3.25;;;;;;;4.81;63.69;100627.28;7399101;19;20023;-64
2022/01/30 07:40:02;;;;;;;21.25;4.10;;;;;;;4.82;63.29;100623.81;7402068;19;20023;-65
2022/01/30 07:42:30;;;;;;;18.27;4.20;;;;;;;4.83;63.59;100662.81;7399675;19;20022;-64
2022/01/30 07:44:59;;;;;;;15.20;3.40;;;;;;;4.86;63.76;100628.13;7402256;19;20022;-64
2022/01/30 07:47:27;;;;;;;18.65;4.03;;;;;;;4.89;63.60;100690.53;7399161;19;20022;-64
2022/01/30 07:49:55;;;;;;;18.27;2.85;;;;;;;4.90;63.74;100622.06;7399202;19;20031;-64
2022/01/30 07:52:24;;;;;;;20.10;3.65;;;;;;;4.93;63.63;100676.69;7401520;19;20500;-64
2022/01/30 07:54:55;;;;;;;20.05;4.15;;;;;;;4.93;64.01;100665.41;7401880;19;20032;-65
2022/01/30 07:57:23;;;;;;;21.63;4.70;;;;;;;4.92;63.45;100815.34;7399574;19;20023;-64
2022/01/30 07:59:51;;;;;;;16.55;4.07;;;;;;;4.94;63.07;100714.81;7398943;19;20006;-68
2022/01/30 08:02:19;;;;;;;19.85;4.38;;;;;;;4.97;63.73;100681.00;7398832;19;20018;-67
2022/01/30 08:04:47;;;;;;;15.10;2.90;;;;;;;4.97;63.23;100649.81;7398896;19;20019;-64
2022/01/30 08:07:15;;;;;;;18.52;4.38;;;;;;;4.98;63.47;100632.47;7400629;19;20035;-64
2022/01/30 08:09:43;;;;;;;28.20;4.75;;;;;;;4.98;63.16;100635.94;7401045;19;20019;-63
2022/01/30 08:12:15;;;;;;;33.25;4.40;;;;;;;4.97;62.36;100638.56;7401147;19;20019;-64
2022/01/30 08:14:43;;;;;;;20.55;2.95;;;;;;;4.98;62.28;100646.34;7401509;19;20018;-65
2022/01/30 08:17:17;;;;;;;17.17;3.58;;;;;;;4.99;62.25;100671.50;7400394;19;20039;-64
2022/01/30 08:19:46;;;;;;;21.42;4.93;;;;;;;5.01;62.83;100668.88;7401375;19;20014;-64
2022/01/30 08:22:14;;;;;;;23.88;4.22;;;;;;;5.00;62.00;100709.59;7399278;19;20025;-65
2022/01/30 08:24:43;;;;;;;20.88;3.10;;;;;;;5.01;62.54;100708.75;7398179;19;20033;-65
2022/01/30 08:27:11;;;;;;;20.35;4.03;;;;;;;5.00;62.37;100678.41;7398036;19;20022;-64
2022/01/30 08:29:41;;;;;;;21.83;3.45;;;;;;;4.99;62.32;100725.22;7400469;19;20022;-65
2022/01/30 08:32:11;;;;;;;19.30;4.35;;;;;;;5.00;61.92;100758.16;7400984;19;20031;-64
2022/01/30 08:34:41;;;;;;;21.38;4.40;;;;;;;4.98;62.67;100739.94;7400564;19;20048;-65
2022/01/30 08:37:09;;;;;;;17.63;3.60;;;;;;;4.97;62.59;100739.97;7399860;19;20023;-65
2022/01/30 08:39:38;;;;;;;20.33;4.57;;;;;;;4.98;62.81;100772.88;7397806;19;20022;-64
2022/01/30 08:42:07;;;;;;;15.75;3.58;;;;;;;4.95;63.00;100789.34;7396199;19;20033;-64
2022/01/30 08:44:35;;;;;;;24.33;4.25;;;;;;;4.96;62.99;100764.22;7399867;19;20022;-66
2022/01/30 08:47:06;;;;;;;23.88;3.97;;;;;;;4.95;63.09;100778.06;7399338;19;20039;-64
2022/01/30 08:49:34;;;;;;;20.33;5.05;;;;;;;4.93;63.16;100814.47;7400402;19;20043;-65
2022/01/30 08:52:02;;;;;;;17.38;3.85;;;;;;;4.94;63.38;100790.22;7399637;19;20372;-65
2022/01/30 08:54:30;;;;;;;17.95;3.40;;;;;;;4.91;62.88;100818.78;7399914;19;20014;-65
2022/01/30 08:56:59;;;;;;;18.80;4.28;;;;;;;4.94;63.09;100795.44;7399345;19;20035;-64
2022/01/30 08:59:33;;;;;;;17.48;3.42;;;;;;;4.95;63.16;100804.94;7397138;19;20026;-65
2022/01/30 09:02:01;;;;;;;;;;;;;;;4.96;62.54;100829.22;7399819;19;20011;-65
2022/01/30 09:04:31;;;;;;;21.42;3.75;;;;;;;4.95;62.37;100859.53;7399671;19;19936;-63
2022/01/30 09:07:00;;;;;;;22.90;3.42;;;;;;;4.98;63.43;100823.16;7398650;19;20500;-64
2022/01/30 09:09:29;;;;;;;21.75;3.20;;;;;;;4.99;63.09;100834.41;7399292;19;20429;-64
2022/01/30 09:11:58;;;;;;;17.30;3.22;;;;;;;5.00;62.44;100838.75;7399367;19;20036;-64
2022/01/30 09:14:26;;;;;;;16.00;3.42;;;;;;;4.98;63.17;100811.88;7399198;19;20022;-64
2022/01/30 09:16:55;;;;;;;18.02;3.05;;;;;;;4.97;63.43;100846.56;7396470;19;20510;-64
2022/01/30 09:19:23;;;;;;;19.35;3.65;;;;;;;4.95;63.85;100864.75;7398972;19;20015;-63
2022/01/30 09:21:54;;;;;;;23.88;4.45;;;;;;;4.93;63.99;100848.28;7396587;19;20037;-68
2022/01/30 09:24:22;;;;;;;23.60;4.85;;;;;;;4.90;64.79;100861.25;7396867;19;20015;-64
2022/01/30 09:26:50;;;;;;;21.00;5.40;;;;;;;4.87;65.23;100850.84;7395464;19;20511;-64
2022/01/30 09:29:22;;;;;;;23.98;4.07;;;;;;;4.83;65.15;100899.38;7396860;19;20022;-64
2022/01/30 09:31:50;;;;;;;21.88;4.20;;;;;;;4.84;65.61;100863.81;7396648;19;20025;-64
2022/01/30 09:34:18;;;;;;;18.38;2.88;;;;;;;4.84;64.76;100890.72;7398097;19;20052;-63
2022/01/30 09:36:47;;;;;;;18.40;3.45;;;;;;;4.85;64.93;100857.78;7398066;19;20032;-66
2022/01/30 09:39:17;;;;;;;18.95;3.55;;;;;;;4.86;64.40;100854.31;7398273;19;20035;-64
2022/01/30 09:41:54;;;;;;;16.58;4.38;;;;;;;4.87;63.98;100929.72;7395217;19;20011;-65
2022/01/30 09:44:23;;;;;;;19.73;4.68;;;;;;;4.92;63.97;100871.69;7396114;19;20022;-64
2022/01/30 09:46:52;;;;;;;24.92;4.40;;;;;;;4.94;65.10;100813.63;7395747;19;20018;-62
2022/01/30 09:49:25;;;;;;;25.00;5.15;;;;;;;4.94;64.71;100862.13;7398022;19;20054;-63
2022/01/30 09:51:55;;;;;;;24.08;4.05;;;;;;;4.94;64.92;100868.22;7395934;19;20026;-64
2022/01/30 09:54:26;;;;;;;18.52;3.92;;;;;;;4.95;65.58;100882.09;7395256;19;20015;-64
2022/01/30 09:56:54;;;;;;;22.08;4.38;;;;;;;4.92;64.67;100858.69;7395348;19;20523;-63
2022/01/30 09:59:22;;;;;;;16.42;3.22;;;;;;;4.95;64.95;100885.53;7396407;19;20023;-64
2022/01/30 10:01:50;;;;;;;15.02;3.88;;;;;;;4.95;65.87;100895.94;7395754;19;20018;-64
2022/01/30 10:04:18;;;;;;;19.73;3.35;;;;;;;4.93;65.76;100876.88;7397489;19;20032;-62
2022/01/30 10:06:56;;;;;;;19.10;4.28;;;;;;;4.89;65.94;100909.78;7397227;19;20536;-64
2022/01/30 10:09:29;;;;;;;25.13;4.82;;;;;;;4.88;66.55;100887.25;7400635;19;20022;-62
2022/01/30 10:12:14;;;;;;;20.90;3.53;;;;;;;4.88;66.70;100895.06;7400930;19;20477;-63
2022/01/30 10:14:55;;;;;;;19.42;5.15;;;;;;;4.87;66.73;100864.72;7401047;19;20040;-64
2022/01/30 10:17:32;;;;;;;17.42;3.65;;;;;;;4.89;66.82;100907.19;7399301;19;20022;-64
2022/01/30 10:20:07;;;;;;;27.45;4.82;;;;;;;4.92;68.71;100914.16;7395986;19;20044;-64
2022/01/30 10:22:38;;;;;;;23.77;4.63;;;;;;;4.87;69.68;100960.06;7394774;19;20518;-68
2022/01/30 10:25:19;;;;;;;31.40;6.03;;;;;;;4.80;70.03;100942.69;7395532;19;20022;-64
2022/01/30 10:27:47;;;;;;;25.83;6.35;;;;;;;4.78;69.98;100908.00;7395231;19;20022;-65
2022/01/30 10:30:24;;;;;;;27.10;5.15;;;;;;;4.72;72.00;100951.28;7395061;19;20022;-65
2022/01/30 10:32:59;;;;;;;22.58;4.32;;;;;;;4.56;74.90;100926.06;7397080;19;20425;-64
2022/01/30 10:35:28;;;;;;;25.00;4.05;;;;;;;4.48;75.77;100959.81;7394774;19;20018;-65
2022/01/30 10:37:57;;;;;;;21.83;4.43;;;;;;;4.29;78.10;100926.78;7394793;19;20090;-64
2022/01/30 10:40:36;;;;;;;24.83;4.35;;;;;;;4.10;79.16;100962.13;7396456;19;20022;-64
2022/01/30 10:43:04;;;;;;;27.23;4.18;;;;;;;3.96;79.43;100955.09;7394820;19;20015;-63
2022/01/30 10:45:34;;;;;;;37.17;5.47;;;;;;;3.95;80.59;100950.75;7394413;19;20019;-62
2022/01/30 10:48:16;;;;;;;25.52;5.38;;;;;;;3.96;77.94;100949.88;7395091;19;20018;-66
2022/01/30 10:50:47;;;;;;;28.60;5.88;;;;;;;4.04;77.35;100958.63;7394348;19;20409;-66
2022/01/30 10:53:21;;;;;;;32.60;5.53;;;;;;;4.14;74.89;100961.28;7396296;19;20021;-63
2022/01/30 10:55:52;;;;;;;30.40;5.07;;;;;;;4.25;74.66;100957.06;7396706;19;20426;-66
2022/01/30 10:58:22;;;;;;;26.05;4.30;;;;;;;4.34;73.50;100912.94;7394652;19;20027;-65
2022/01/30 11:00:53;;;;;;;22.52;4.57;;;;;;;4.45;72.85;100945.91;7395517;19;20041;-65
2022/01/30 11:03:38;;;;;;;23.90;5.22;;;;;;;4.57;70.99;100953.81;7395014;19;20022;-65
2022/01/30 11:06:10;;;;;;;23.95;4.20;;;;;;;4.67;70.42;100947.78;7393384;19;20018;-65
2022/01/30 11:08:40;;;;;;;37.78;5.55;;;;;;;4.76;70.80;100965.19;7394031;19;20086;-67
2022/01/30 11:11:23;;;;;;;27.73;6.13;;;;;;;4.88;68.42;100959.19;7393938;19;20019;-65
2022/01/30 11:14:15;;;;;;;31.15;5.88;;;;;;;4.99;67.78;100965.31;7394342;19;20048;-65
2022/01/30 11:19:25;;;;;;;22.38;4.35;;;;;;;5.20;67.08;100955.84;7395702;19;20018;-66
2022/01/30 11:21:56;;;;;;;22.50;4.88;;;;;;;5.30;66.75;100960.22;7394360;19;20022;-67
2022/01/30 11:24:27;;;;;;;32.63;6.15;;;;;;;5.38;65.95;100948.13;7393843;19;20026;-65
2022/01/30 11:26:58;;;;;;;25.45;4.45;;;;;;;5.44;63.34;100965.47;7394156;19;20018;-66
2022/01/30 11:29:26;;;;;;;23.13;4.97;;;;;;;5.50;63.09;100962.91;7397362;19;20023;-66
2022/01/30 11:31:54;;;;;;;20.00;4.18;;;;;;;5.51;62.49;100962.03;7397724;19;20025;-66
2022/01/30 11:34:23;;;;;;;29.92;5.82;;;;;;;5.54;62.52;100974.19;7393896;19;20019;-66
2022/01/30 11:36:52;;;;;;;26.88;5.07;;;;;;;5.58;62.98;100996.75;7392720;19;20022;-65
2022/01/30 11:39:22;;;;;;;35.35;5.38;;;;;;;5.58;61.53;100973.31;7392957;19;20035;-65
2022/01/30 11:42:15;;;;;;;24.17;5.30;;;;;;;5.55;60.77;100981.13;7394127;19;20014;-66
2022/01/30 11:44:44;;;;;;;26.45;5.00;;;;;;;5.57;62.04;101000.22;7394497;19;20365;-64
2022/01/30 11:47:25;;;;;;;33.25;5.30;;;;;;;5.57;61.13;101000.22;7394198;19;20014;-65
2022/01/30 11:50:09;;;;;;;31.17;5.78;;;;;;;5.58;60.79;101014.97;7394966;19;20019;-65
2022/01/30 11:52:58;;;;;;;26.58;5.57;;;;;;;5.56;59.86;100980.28;7392955;19;20015;-65
2022/01/30 11:56:00;;;;;;;24.98;5.07;;;;;;;5.56;60.45;101003.69;7394859;19;20032;-65
2022/01/30 11:58:49;;;;;;;31.88;5.30;;;;;;;5.55;59.84;101002.81;7392552;19;20017;-65
2022/01/30 12:01:38;;;;;;;26.85;5.38;;;;;;;5.53;58.97;101008.88;7392611;19;20019;-64
2022/01/30 12:04:12;;;;;;;28.33;5.68;;;;;;;5.52;58.46;101018.44;7392743;19;20019;-65
2022/01/30 12:06:44;;;;;;;25.83;6.07;;;;;;;5.57;60.33;101002.81;7394423;19;20037;-64
2022/01/30 12:09:33;;;;;;;34.92;7.57;;;;;;;5.59;59.27;100987.22;7392539;19;20498;-66
2022/01/30 12:12:09;;;;;;;30.13;5.40;;;;;;;5.55;58.43;100984.59;7397273;19;20018;-65
2022/01/30 12:15:00;;;;;;;29.20;6.07;;;;;;;5.55;58.03;101027.97;7396587;19;20036;-64
2022/01/30 12:17:59;;;;;;;27.08;6.10;;;;;;;5.59;57.87;101014.09;7398282;19;20363;-65
2022/01/30 12:20:28;;;;;;;24.70;5.22;;;;;;;5.59;58.01;101024.53;7401397;19;20018;-64
2022/01/30 12:22:57;;;;;;;33.15;6.38;;;;;;;5.64;58.91;101015.00;7398569;19;20011;-67
2022/01/30 12:25:34;;;;;;;31.13;5.30;;;;;;;5.66;58.46;101030.59;7400948;19;20015;-64